createdAt,value
2019-04-23T00:01:07.918Z,12.07
2019-04-23T00:03:30.653Z,12.04
2019-04-23T00:06:10.300Z,12.00
2019-04-23T00:08:36.465Z,11.97
2019-04-23T00:13:35.352Z,11.91
2019-04-23T00:16:12.922Z,11.87
2019-04-23T00:18:42.672Z,11.85
2019-04-23T00:21:39.005Z,11.80
2019-04-23T00:29:07.965Z,11.71
2019-04-23T00:31:36.204Z,11.69
2019-04-23T00:34:05.379Z,11.66
2019-04-23T00:36:37.475Z,11.64
2019-04-23T00:39:06.302Z,11.62
2019-04-23T00:41:36.508Z,11.60
2019-04-23T00:46:37.744Z,11.56
2019-04-23T00:49:12.027Z,11.52
2019-04-23T00:51:30.264Z,11.49
2019-04-23T00:54:08.019Z,11.46
2019-04-23T00:59:08.878Z,11.40
2019-04-23T01:01:44.474Z,11.37
2019-04-23T01:04:08.497Z,11.34
2019-04-23T01:06:47.758Z,11.32
2019-04-23T01:09:22.685Z,11.28
2019-04-23T01:11:32.023Z,11.24
2019-04-23T01:14:08.277Z,11.23
2019-04-23T01:19:28.486Z,11.16
2019-04-23T01:21:32.638Z,11.13
2019-04-23T01:24:09.320Z,11.10
2019-04-23T01:27:32.295Z,11.08
2019-04-23T01:29:50.640Z,11.07
2019-04-23T01:32:20.850Z,11.02
2019-04-23T01:34:50.182Z,11.00
2019-04-23T01:37:24.067Z,10.99
2019-04-23T01:39:53.109Z,10.96
2019-04-23T01:42:28.955Z,10.93
2019-04-23T01:44:50.871Z,10.90
2019-04-23T01:47:24.993Z,10.89
2019-04-23T01:50:01.580Z,10.87
2019-04-23T01:52:24.936Z,10.85
2019-04-23T01:54:52.019Z,10.83
2019-04-23T01:57:28.820Z,10.81
2019-04-23T01:59:55.398Z,10.78
2019-04-23T02:02:27.625Z,10.77
2019-04-23T02:04:57.616Z,10.76
2019-04-23T02:07:29.594Z,10.75
2019-04-23T02:09:55.805Z,10.73
2019-04-23T02:12:28.536Z,10.70
2019-04-23T02:14:57.258Z,10.70
2019-04-23T02:17:23.351Z,10.68
2019-04-23T02:20:02.339Z,10.67
2019-04-23T02:22:31.354Z,10.67
2019-04-23T02:25:11.120Z,10.66
2019-04-23T02:27:36.653Z,10.64
2019-04-23T02:30:20.892Z,10.64
2019-04-23T02:32:42.225Z,10.63
2019-04-23T02:35:17.041Z,10.63
2019-04-23T02:40:26.713Z,10.62
2019-04-23T02:42:49.656Z,10.61
2019-04-23T02:45:09.371Z,10.60
2019-04-23T02:47:42.386Z,10.59
2019-04-23T02:50:24.882Z,10.58
2019-04-23T02:52:56.105Z,10.57
2019-04-23T02:55:17.803Z,10.55
2019-04-23T02:57:38.898Z,10.53
2019-04-23T03:00:20.884Z,10.50
2019-04-23T03:02:49.869Z,10.49
2019-04-23T03:05:18.885Z,10.46
2019-04-23T03:07:45.606Z,10.45
2019-04-23T03:10:16.324Z,10.43
2019-04-23T03:12:50.872Z,10.41
2019-04-23T03:15:32.809Z,10.38
2019-04-23T03:25:49.672Z,10.31
2019-04-23T03:28:25.262Z,10.27
2019-04-23T03:31:57.972Z,10.25
2019-04-23T03:33:57.570Z,10.22
2019-04-23T03:38:29.725Z,10.17
2019-04-23T03:40:58.924Z,10.16
2019-04-23T03:43:26.013Z,10.14
2019-04-23T03:48:26.242Z,10.13
2019-04-23T03:53:32.672Z,10.12
2019-04-23T03:55:56.206Z,10.11
2019-04-23T03:58:34.770Z,10.12
2019-04-23T04:03:58.911Z,10.18
2019-04-23T04:05:56.192Z,10.18
2019-04-23T04:11:11.370Z,10.20
2019-04-23T04:21:01.088Z,10.28
2019-04-23T04:23:33.054Z,10.32
2019-04-23T04:28:27.901Z,10.40
2019-04-23T04:33:36.515Z,10.45
2019-04-23T04:41:02.967Z,10.60
2019-04-23T04:46:21.773Z,10.73
2019-04-23T04:48:35.422Z,10.78
2019-04-23T04:53:44.932Z,10.90
2019-04-23T04:56:12.415Z,10.99
2019-04-23T04:58:32.527Z,11.09
2019-04-23T05:03:26.977Z,11.23
2019-04-23T05:11:10.251Z,11.33
2019-04-23T05:13:39.223Z,11.33
2019-04-23T05:16:04.316Z,11.38
2019-04-23T05:19:35.337Z,11.41
2019-04-23T05:23:42.762Z,11.49
2019-04-23T05:26:19.242Z,11.53
2019-04-23T05:28:49.163Z,11.58
2019-04-23T05:31:14.169Z,11.61
2019-04-23T05:33:49.248Z,11.65
2019-04-23T05:36:20.155Z,11.69
2019-04-23T05:41:27.062Z,11.76
2019-04-23T05:43:49.202Z,11.80
2019-04-23T05:46:22.274Z,11.84
2019-04-23T05:48:45.602Z,11.89
2019-04-23T05:51:23.857Z,11.93
2019-04-23T05:53:47.435Z,11.97
2019-04-23T05:56:15.587Z,12.01
2019-04-23T05:58:52.442Z,12.04
2019-04-23T06:01:47.289Z,12.10
2019-04-23T06:03:59.338Z,12.16
2019-04-23T06:06:29.755Z,12.22
2019-04-23T06:08:53.147Z,12.27
2019-04-23T06:11:32.835Z,12.36
2019-04-23T06:14:02.034Z,12.42
2019-04-23T06:16:31.420Z,12.50
2019-04-23T06:18:57.536Z,12.61
2019-04-23T06:21:30.933Z,12.68
2019-04-23T06:24:05.987Z,12.78
2019-04-23T06:26:33.141Z,12.88
2019-04-23T06:28:59.051Z,12.98
2019-04-23T06:33:54.160Z,13.13
2019-04-23T06:36:30.728Z,13.21
2019-04-23T06:41:29.021Z,13.38
2019-04-23T06:44:09.297Z,13.46
2019-04-23T06:46:28.664Z,13.55
2019-04-23T06:48:54.867Z,13.62
2019-04-23T06:51:34.975Z,13.68
2019-04-23T06:53:58.257Z,13.74
2019-04-23T06:56:39.707Z,13.82
2019-04-23T06:59:00.835Z,13.91
2019-04-23T07:01:28.385Z,13.97
2019-04-23T07:03:57.237Z,14.07
2019-04-23T07:06:31.487Z,14.17
2019-04-23T07:14:07.334Z,14.33
2019-04-23T07:16:27.753Z,14.36
2019-04-23T07:19:04.655Z,14.41
2019-04-23T07:24:05.676Z,14.53
2019-04-23T07:26:34.903Z,14.61
2019-04-23T07:29:03.518Z,14.66
2019-04-23T07:31:48.422Z,14.70
2019-04-23T07:34:01.176Z,14.73
2019-04-23T07:36:34.220Z,14.75
2019-04-23T07:39:06.069Z,14.77
2019-04-23T07:41:48.214Z,14.82
2019-04-23T07:44:38.337Z,14.89
2019-04-23T07:47:11.683Z,14.96
2019-04-23T07:49:30.769Z,15.04
2019-04-23T07:52:10.716Z,15.07
2019-04-23T07:57:12.279Z,15.12
2019-04-23T07:59:37.157Z,15.19
2019-04-23T08:02:11.009Z,15.26
2019-04-23T08:04:35.213Z,15.32
2019-04-23T08:07:08.368Z,15.37
2019-04-23T08:09:43.001Z,15.41
2019-04-23T08:12:11.600Z,15.43
2019-04-23T08:14:44.230Z,15.47
2019-04-23T08:17:04.093Z,15.51
2019-04-23T08:19:48.108Z,15.56
2019-04-23T08:24:50.600Z,15.70
2019-04-23T08:27:18.017Z,15.76
2019-04-23T08:29:44.437Z,15.83
2019-04-23T08:37:27.301Z,16.07
2019-04-23T08:39:46.872Z,16.16
2019-04-23T08:45:09.219Z,16.29
2019-04-23T08:49:59.365Z,16.42
2019-04-23T08:52:31.245Z,16.50
2019-04-23T08:55:22.822Z,16.54
2019-04-23T08:57:31.916Z,16.56
2019-04-23T09:00:04.313Z,16.58
2019-04-23T09:05:11.390Z,16.67
2019-04-23T09:07:43.609Z,16.71
2019-04-23T09:10:27.993Z,16.73
2019-04-23T09:15:18.744Z,16.82
2019-04-23T09:17:42.605Z,16.86
2019-04-23T09:22:38.826Z,16.91
2019-04-23T09:25:26.033Z,16.91
2019-04-23T09:27:45.287Z,16.92
2019-04-23T09:30:16.248Z,16.93
2019-04-23T09:33:01.996Z,16.96
2019-04-23T09:38:17.732Z,17.04
2019-04-23T09:41:05.898Z,17.08
2019-04-23T09:43:19.794Z,17.16
2019-04-23T09:46:00.533Z,17.22
2019-04-23T09:48:48.543Z,17.27
2019-04-23T09:51:13.603Z,17.33
2019-04-23T09:53:48.821Z,17.38
2019-04-23T09:56:06.874Z,17.39
2019-04-23T09:58:34.170Z,17.48
2019-04-23T10:03:46.259Z,17.63
2019-04-23T10:06:12.339Z,17.72
2019-04-23T10:08:43.055Z,17.81
2019-04-23T10:11:07.523Z,17.90
2019-04-23T10:13:36.494Z,18.00
2019-04-23T10:16:06.891Z,18.11
2019-04-23T10:18:37.215Z,18.19
2019-04-23T10:21:07.586Z,18.24
2019-04-23T10:23:37.060Z,18.31
2019-04-23T10:26:06.250Z,18.37
2019-04-23T10:28:40.241Z,18.45
2019-04-23T10:31:09.139Z,18.48
2019-04-23T10:33:38.080Z,18.51
2019-04-23T10:36:11.650Z,18.55
2019-04-23T10:38:41.558Z,18.59
2019-04-23T10:41:07.448Z,18.63
2019-04-23T10:43:39.330Z,18.73
2019-04-23T10:46:32.601Z,18.81
2019-04-23T10:52:04.932Z,18.88
2019-04-23T10:54:43.390Z,18.92
2019-04-23T10:57:13.484Z,19.00
2019-04-23T10:59:40.385Z,19.10
2019-04-23T11:02:28.935Z,19.17
2019-04-23T11:04:54.043Z,19.21
2019-04-23T11:07:25.863Z,19.26
2019-04-23T11:15:19.710Z,19.23
2019-04-23T11:22:45.414Z,19.35
2019-04-23T11:25:26.629Z,19.37
2019-04-23T11:27:43.979Z,19.45
2019-04-23T11:30:27.440Z,19.53
2019-04-23T11:38:06.989Z,19.84
2019-04-23T11:40:15.746Z,19.89
2019-04-23T11:42:50.089Z,19.89
2019-04-23T11:45:27.783Z,19.90
2019-04-23T11:48:23.969Z,19.92
2019-04-23T11:52:52.081Z,19.99
2019-04-23T11:57:59.301Z,20.02
2019-04-23T12:02:59.116Z,20.14
2019-04-23T12:06:04.117Z,20.18
2019-04-23T12:08:38.445Z,20.27
2019-04-23T12:13:44.932Z,20.39
2019-04-23T12:16:11.390Z,20.40
2019-04-23T12:18:38.744Z,20.41
2019-04-23T12:21:14.998Z,20.44
2019-04-23T12:23:48.559Z,20.48
2019-04-23T12:26:25.693Z,20.48
2019-04-23T12:28:44.080Z,20.50
2019-04-23T12:31:16.171Z,20.52
2019-04-23T12:34:09.191Z,20.52
2019-04-23T12:39:00.512Z,20.49
2019-04-23T12:41:28.297Z,20.52
2019-04-23T12:44:03.277Z,20.58
2019-04-23T12:46:29.801Z,20.61
2019-04-23T12:51:38.034Z,20.71
2019-04-23T12:53:59.567Z,20.73
2019-04-23T12:56:46.442Z,20.79
2019-04-23T12:58:56.235Z,20.80
2019-04-23T13:01:35.732Z,20.79
2019-04-23T13:03:55.969Z,20.77
2019-04-23T13:06:28.182Z,20.78
2019-04-23T13:09:02.799Z,20.78
2019-04-23T13:14:00.412Z,20.83
2019-04-23T13:16:37.793Z,20.86
2019-04-23T13:19:03.561Z,20.90
2019-04-23T13:21:53.526Z,20.94
2019-04-23T13:24:04.122Z,20.91
2019-04-23T13:26:31.179Z,20.90
2019-04-23T13:29:11.842Z,20.94
2019-04-23T13:31:32.743Z,20.95
2019-04-23T13:34:04.301Z,20.99
2019-04-23T13:36:36.374Z,21.06
2019-04-23T13:39:07.365Z,21.11
2019-04-23T13:41:37.511Z,21.17
2019-04-23T13:44:00.109Z,21.15
2019-04-23T13:46:39.813Z,21.10
2019-04-23T13:49:03.148Z,21.11
2019-04-23T13:51:40.393Z,21.11
2019-04-23T13:54:13.861Z,21.15
2019-04-23T13:57:03.215Z,21.17
2019-04-23T13:59:16.534Z,21.16
2019-04-23T14:01:59.745Z,21.18
2019-04-23T14:04:24.752Z,21.14
2019-04-23T14:06:47.142Z,21.12
2019-04-23T14:09:19.990Z,21.08
2019-04-23T14:11:42.505Z,21.07
2019-04-23T14:14:25.002Z,21.04
2019-04-23T14:16:48.468Z,21.01
2019-04-23T14:19:08.027Z,21.04
2019-04-23T14:21:44.559Z,21.02
2019-04-23T14:26:46.154Z,20.95
2019-04-23T14:29:21.551Z,20.89
2019-04-23T14:31:54.994Z,20.89
2019-04-23T14:34:21.188Z,20.90
2019-04-23T14:36:59.265Z,20.91
2019-04-23T14:41:53.702Z,20.82
2019-04-23T14:44:19.773Z,20.77
2019-04-23T14:52:02.414Z,20.55
2019-04-23T14:55:07.519Z,20.48
2019-04-23T14:57:07.957Z,20.42
2019-04-23T14:59:24.179Z,20.36
2019-04-23T15:02:07.464Z,20.29
2019-04-23T15:04:36.009Z,20.22
2019-04-23T15:07:11.013Z,20.15
2019-04-23T15:09:36.133Z,20.10
2019-04-23T15:12:11.218Z,20.07
2019-04-23T15:14:46.396Z,20.03
2019-04-23T15:17:10.728Z,20.02
2019-04-23T15:22:13.657Z,20.16
2019-04-23T15:25:13.653Z,20.20
2019-04-23T15:28:00.140Z,20.18
2019-04-23T15:29:32.845Z,20.18
2019-04-23T15:32:20.238Z,20.17
2019-04-23T15:34:37.671Z,20.13
2019-04-23T15:37:43.133Z,20.08
2019-04-23T15:39:46.544Z,20.05
2019-04-23T15:42:22.718Z,20.01
2019-04-23T15:44:51.961Z,19.98
2019-04-23T15:47:19.606Z,19.96
2019-04-23T15:49:51.477Z,19.94
2019-04-23T15:52:27.404Z,19.93
2019-04-23T15:54:50.857Z,19.90
2019-04-23T15:57:18.133Z,19.84
2019-04-23T15:59:58.841Z,19.80
2019-04-23T16:01:49.948Z,19.77
2019-04-23T16:04:20.061Z,19.73
2019-04-23T16:06:49.798Z,19.67
2019-04-23T16:09:46.156Z,19.66
2019-04-23T16:12:09.737Z,19.63
2019-04-23T16:14:58.416Z,19.61
2019-04-23T16:17:32.667Z,19.57
2019-04-23T16:20:16.809Z,19.52
2019-04-23T16:22:36.807Z,19.47
2019-04-23T16:25:14.703Z,19.40
2019-04-23T16:27:34.841Z,19.34
2019-04-23T16:30:15.909Z,19.29
2019-04-23T16:38:24.793Z,19.19
2019-04-23T16:40:33.215Z,19.19
2019-04-23T16:43:05.095Z,19.15
2019-04-23T16:45:31.869Z,19.10
2019-04-23T16:48:07.706Z,19.07
2019-04-23T16:50:41.339Z,19.01
2019-04-23T16:53:11.218Z,18.97
2019-04-23T16:55:37.965Z,18.92
2019-04-23T16:58:11.858Z,18.83
2019-04-23T17:00:38.337Z,18.74
2019-04-23T17:05:44.312Z,18.58
2019-04-23T17:10:42.801Z,18.43
2019-04-23T17:13:13.720Z,18.43
2019-04-23T17:15:53.426Z,18.37
2019-04-23T17:18:12.005Z,18.25
2019-04-23T17:20:47.057Z,18.14
2019-04-23T17:23:29.028Z,18.05
2019-04-23T17:25:42.125Z,17.97
2019-04-23T17:30:52.052Z,17.79
2019-04-23T17:36:07.012Z,17.63
2019-04-23T17:41:15.620Z,17.44
2019-04-23T17:43:39.894Z,17.34
2019-04-23T17:46:08.921Z,17.27
2019-04-23T17:48:35.356Z,17.20
2019-04-23T17:51:11.367Z,17.13
2019-04-23T17:53:58.206Z,17.04
2019-04-23T17:58:58.918Z,16.89
2019-04-23T18:03:55.857Z,16.67
2019-04-23T18:08:50.953Z,16.41
2019-04-23T18:11:16.206Z,16.30
2019-04-23T18:13:48.417Z,16.15
2019-04-23T18:16:30.730Z,16.04
2019-04-23T18:21:44.597Z,15.84
2019-04-23T18:24:23.225Z,15.72
2019-04-23T18:27:01.260Z,15.61
2019-04-23T18:29:40.359Z,15.49
2019-04-23T18:32:16.689Z,15.41
2019-04-23T18:35:03.657Z,15.32
2019-04-23T18:39:47.004Z,15.20
2019-04-23T18:42:20.456Z,15.14
2019-04-23T18:44:42.054Z,15.06
2019-04-23T18:47:20.959Z,15.00
2019-04-23T18:49:45.381Z,14.96
2019-04-23T18:52:33.108Z,14.91
2019-04-23T18:54:41.886Z,14.87
2019-04-23T18:57:12.573Z,14.83
2019-04-23T18:59:55.097Z,14.81
2019-04-23T19:02:31.812Z,14.78
2019-04-23T19:05:08.523Z,14.75
2019-04-23T19:08:01.322Z,14.72
2019-04-23T19:13:12.591Z,14.65
2019-04-23T19:15:30.139Z,14.61
2019-04-23T19:17:50.246Z,14.56
2019-04-23T19:20:45.287Z,14.57
2019-04-23T19:23:08.962Z,14.55
2019-04-23T19:25:28.182Z,14.53
2019-04-23T19:30:41.492Z,14.52
2019-04-23T19:33:13.851Z,14.51
2019-04-23T19:38:13.618Z,14.55
2019-04-23T19:40:46.625Z,14.56
2019-04-23T19:43:11.951Z,14.57
2019-04-23T19:45:49.439Z,14.61
2019-04-23T19:48:30.366Z,14.64
2019-04-23T19:50:54.240Z,14.68
2019-04-23T19:53:25.979Z,14.74
2019-04-23T19:56:00.499Z,14.80
2019-04-23T20:01:05.428Z,14.91
2019-04-23T20:03:26.489Z,14.94
2019-04-23T20:08:29.319Z,15.00
2019-04-23T20:10:50.488Z,15.04
2019-04-23T20:13:19.152Z,15.07
2019-04-23T20:16:05.344Z,15.08
2019-04-23T20:18:26.250Z,15.11
2019-04-23T20:20:51.391Z,15.12
2019-04-23T20:23:26.507Z,15.13
2019-04-23T20:26:12.098Z,15.16
2019-04-23T20:28:41.091Z,15.18
2019-04-23T20:32:05.767Z,15.17
2019-04-23T20:33:57.831Z,15.16
2019-04-23T20:43:53.986Z,15.05
2019-04-23T20:46:15.901Z,15.03
2019-04-23T20:48:48.706Z,15.00
2019-04-23T20:51:16.334Z,14.97
2019-04-23T20:53:50.643Z,14.94
2019-04-23T20:56:17.549Z,14.95
2019-04-23T20:58:59.644Z,14.95
2019-04-23T21:01:34.662Z,14.97
2019-04-23T21:03:55.175Z,14.99
2019-04-23T21:06:33.843Z,15.00
2019-04-23T21:11:36.216Z,15.03
2019-04-23T21:18:58.564Z,15.10
2019-04-23T21:21:40.119Z,15.12
2019-04-23T21:26:37.329Z,15.18
2019-04-23T21:28:54.380Z,15.19
2019-04-23T21:39:15.433Z,15.28
2019-04-23T21:46:51.349Z,15.33
2019-04-23T21:54:16.608Z,15.38
2019-04-23T21:56:47.055Z,15.40
2019-04-23T21:59:10.047Z,15.40
2019-04-23T22:02:14.976Z,15.41
2019-04-23T22:04:25.039Z,15.43
2019-04-23T22:09:22.421Z,15.44
2019-04-23T22:14:42.435Z,15.44
2019-04-23T22:16:57.600Z,15.43
2019-04-23T22:19:19.906Z,15.40
2019-04-23T22:24:19.856Z,15.32
2019-04-23T22:26:54.857Z,15.27
2019-04-23T22:29:26.139Z,15.23
2019-04-23T22:32:02.412Z,15.18
2019-04-23T22:37:07.578Z,15.09
2019-04-23T22:39:26.890Z,15.04
2019-04-23T22:42:08.778Z,14.99
2019-04-23T22:44:30.919Z,14.96
2019-04-23T22:47:01.595Z,14.94
2019-04-23T22:52:16.582Z,14.91
2019-04-23T22:54:30.645Z,14.86
2019-04-23T22:57:01.062Z,14.85
2019-04-23T22:59:30.195Z,14.83
2019-04-23T23:02:21.010Z,14.82
2019-04-23T23:04:40.162Z,14.82
2019-04-23T23:07:09.078Z,14.82
2019-04-23T23:09:49.013Z,14.82
2019-04-23T23:12:33.497Z,14.81
2019-04-23T23:14:35.427Z,14.81
2019-04-23T23:17:08.825Z,14.80
2019-04-23T23:24:38.417Z,14.75
2019-04-23T23:27:09.456Z,14.72
2019-04-23T23:29:49.297Z,14.68
2019-04-23T23:32:17.050Z,14.65
2019-04-23T23:35:08.036Z,14.62
2019-04-23T23:40:05.136Z,14.57
2019-04-23T23:42:15.526Z,14.53
2019-04-23T23:44:58.391Z,14.49
2019-04-23T23:49:44.303Z,14.41
2019-04-23T23:52:12.637Z,14.38
2019-04-23T23:54:48.689Z,14.32
2019-04-23T23:57:18.239Z,14.28
